Date,TemperatureHighF,TemperatureAvgF,TemperatureLowF,DewpointHighF,DewpointAvgF,DewpointLowF,HumidityHigh,HumidityAvg,HumidityLow,PressureMaxIn,PressureMinIn,WindSpeedMaxMPH,WindSpeedAvgMPH,GustSpeedMaxMPH,PrecipitationSumIn
2013-1-1,63,57,49,60,55,48,95,93,91,30.13,29.96,12,6,15,0.51
2013-1-2,49,44,40,47,41,38,94,90,85,30.30,30.12,18,7,18,0.09
2013-1-3,52,44,38,38,34,30,90,71,53,30.43,30.25,18,7,18,0.01
2013-1-4,56,46,37,37,32,29,79,60,38,30.50,30.36,14,5,16,0.00
2013-1-5,52,49,45,45,38,34,89,67,52,30.39,30.25,15,4,15,0.01
2013-1-6,52,48,45,48,45,42,97,92,83,30.33,30.21,17,5,17,0.76
2013-1-7,58,49,39,47,41,37,93,75,53,30.35,30.18,17,6,17,0.00
2013-1-8,62,56,50,61,52,43,98,88,67,30.23,30.08,29,8,31,2.88
2013-1-9,66,63,60,65,62,60,99,99,98,30.19,30.09,23,8,24,1.51
2013-1-10,71,67,64,70,66,63,100,97,94,30.18,29.96,33,8,33,1.89
2013-1-11,72,67,61,71,66,61,99,97,93,30.12,30.00,15,4,16,0.34
2013-1-12,79,73,69,71,70,67,98,89,68,30.05,29.90,23,7,23,0.00
2013-1-13,78,64,48,73,62,46,96,91,70,30.14,29.83,25,8,25,0.58
2013-1-14,48,44,38,46,42,36,97,96,93,30.20,30.08,24,8,24,1.21
2013-1-15,45,42,38,44,41,37,99,97,95,30.13,29.99,17,6,18,0.16
2013-1-16,39,37,36,38,36,35,98,95,92,30.22,30.05,20,9,21,0.07
2013-1-17,53,45,36,38,36,31,95,72,47,30.47,30.20,21,6,21,0.00
2013-1-18,57,48,38,42,37,31,89,69,40,30.56,30.42,17,5,17,0.00
2013-1-19,65,53,41,52,45,39,94,74,55,30.42,30.25,11,3,13,0.00
2013-1-20,65,55,44,49,44,38,96,68,38,30.30,30.16,10,2,10,0.00
2013-1-21,67,56,46,48,45,41,87,68,45,30.26,30.16,10,2,10,0.00
2013-1-22,63,53,46,48,44,37,87,70,55,30.39,30.24,15,3,15,0.00
2013-1-23,70,59,49,54,50,45,95,73,45,30.42,30.31,16,5,16,0.00
2013-1-24,72,63,53,60,56,50,95,79,63,30.37,30.24,17,5,17,0.00
2013-1-25,74,65,59,62,58,55,94,80,60,30.28,30.16,22,6,22,0.00
2013-1-26,75,64,54,66,59,53,99,83,59,30.27,30.18,13,2,13,0.01
2013-1-27,74,66,59,62,60,57,96,82,62,30.28,30.18,20,7,20,0.00
2013-1-28,76,67,61,66,63,59,95,87,66,30.26,30.12,16,6,17,0.00
2013-1-29,79,72,66,71,68,65,98,88,72,30.12,29.78,29,8,29,0.01
2013-1-30,75,59,46,71,47,32,93,68,39,30.23,29.69,30,10,32,0.52
2013-1-31,61,51,40,41,34,26,89,56,27,30.38,30.22,18,5,18,0.00
2013-2-1,65,55,46,46,41,37,87,61,37,30.43,30.32,13,3,13,0.00
2013-2-2,69,58,46,54,49,43,93,75,46,30.35,30.19,15,4,15,0.00
2013-2-3,68,58,51,54,43,29,94,61,26,30.32,30.13,13,2,13,0.00
2013-2-4,63,55,48,55,49,38,97,81,57,30.14,29.96,16,4,17,0.02
2013-2-5,72,62,55,62,58,54,99,90,70,30.06,29.96,10,2,10,0.00
2013-2-6,65,60,55,62,58,54,99,94,82,30.14,29.96,19,6,20,0.34
2013-2-7,67,61,57,60,58,56,98,92,78,30.00,29.82,30,4,30,1.26
2013-2-8,69,60,54,61,56,50,99,89,69,30.20,29.99,17,5,18,0.01
2013-2-9,63,58,51,60,54,48,94,87,80,30.25,30.05,20,8,20,0.00
2013-2-10,78,71,62,73,69,60,97,91,82,30.06,29.90,23,9,31,0.11
2013-2-11,73,60,56,71,58,53,97,93,86,30.15,29.98,26,8,26,0.79
2013-2-12,72,61,55,70,60,52,99,96,89,30.08,29.76,24,8,24,0.13
2013-2-13,55,52,46,53,46,40,93,80,67,30.11,29.91,25,7,25,0.01
2013-2-14,59,50,42,42,40,32,92,70,37,30.19,30.09,10,2,10,0.00
2013-2-15,64,53,42,45,41,39,91,66,43,30.23,30.11,20,4,20,0.00
2013-2-16,52,48,43,42,30,21,78,53,33,30.37,30.22,25,8,26,0.00
2013-2-17,63,50,39,44,37,29,79,61,42,30.37,30.23,17,6,17,0.00
2013-2-18,67,60,49,64,53,42,90,80,70,30.25,29.98,26,9,27,0.01
2013-2-19,68,59,49,65,43,28,95,61,26,30.28,29.98,26,8,27,0.23
2013-2-20,57,51,44,39,32,27,64,49,36,30.28,30.03,23,9,24,0.00
2013-2-21,73,65,55,71,58,36,94,80,50,30.03,29.77,27,10,31,0.15
2013-2-22,73,62,54,71,56,48,95,80,58,30.02,29.88,21,6,21,0.82
2013-2-23,61,56,53,54,52,49,95,87,78,30.00,29.90,11,4,14,0.01
2013-2-24,67,58,48,60,53,45,97,86,71,30.01,29.75,23,7,27,1.44
2013-2-25,69,63,56,68,60,39,98,91,50,29.79,29.42,35,10,35,1.27
2013-2-26,58,52,46,47,40,36,77,63,50,29.96,29.63,29,11,29,0.00
2013-2-27,68,58,48,52,45,38,86,64,37,30.09,29.95,18,6,19,0.00
2013-2-28,55,48,45,40,35,31,76,61,49,30.20,30.09,18,6,18,0.00
2013-3-1,58,50,42,39,35,29,80,58,35,30.21,30.11,23,6,23,0.00
2013-3-2,44,41,37,34,30,27,81,65,53,30.30,30.20,23,6,23,0.00
2013-3-3,56,45,33,40,31,26,81,59,36,30.34,30.14,18,4,18,0.00
2013-3-4,70,59,43,60,52,39,90,76,57,30.15,29.94,27,8,29,0.00
2013-3-5,73,65,54,64,52,35,90,66,34,30.25,29.93,28,9,30,0.00
2013-3-6,61,52,44,35,30,26,57,43,28,30.39,30.25,19,6,20,0.00
2013-3-7,62,52,40,46,37,32,78,60,42,30.39,30.26,14,4,14,0.00
2013-3-8,69,58,44,51,45,40,94,66,38,30.33,30.17,13,4,13,0.00
2013-3-9,71,63,53,62,56,48,90,80,71,30.18,29.95,26,10,27,0.00
2013-3-10,78,70,57,67,63,54,93,80,60,29.99,29.86,35,10,40,0.02
2013-3-11,57,51,44,54,43,38,96,75,50,30.09,29.94,23,8,27,0.77
2013-3-12,65,54,43,41,38,35,85,57,39,30.26,30.08,13,4,14,0.00
2013-3-13,66,57,46,41,33,23,81,45,21,30.44,30.25,22,6,22,0.00
2013-3-14,69,56,44,48,33,23,73,43,28,30.48,30.31,18,5,18,0.00
2013-3-15,74,62,49,54,49,40,93,66,32,30.35,30.14,23,7,23,0.00
2013-3-16,75,65,54,60,55,52,95,73,49,30.17,29.96,26,6,29,0.00
2013-3-17,78,69,60,67,62,57,94,81,55,29.99,29.82,24,7,24,0.00
2013-3-18,82,74,68,70,67,65,94,82,60,29.94,29.78,20,7,21,0.00
2013-3-19,74,66,55,65,52,42,86,63,40,30.06,29.94,21,7,21,0.00
2013-3-20,70,61,53,57,41,27,87,51,21,30.22,30.00,23,6,23,0.04
2013-3-21,66,57,48,48,38,28,71,50,35,30.10,29.86,19,7,20,0.00
2013-3-22,80,67,57,70,62,48,95,83,68,29.92,29.76,18,6,18,0.00
2013-3-23,71,68,65,71,67,65,99,97,93,29.83,29.58,15,5,17,0.02
2013-3-24,69,60,48,69,50,31,99,72,34,30.08,29.63,30,10,30,0.01
2013-3-25,58,48,39,34,28,20,76,48,28,30.31,30.08,24,9,24,0.00
2013-3-26,54,46,39,31,27,22,65,47,34,30.45,30.31,24,7,24,0.00
2013-3-27,63,50,38,42,31,26,78,52,27,30.48,30.29,15,4,15,0.00
2013-3-28,70,56,43,50,42,33,91,61,33,30.39,30.25,19,4,21,0.00
2013-3-29,74,62,47,57,51,44,94,69,43,30.35,30.19,20,5,20,0.00
2013-3-30,76,66,57,62,58,55,95,77,55,30.22,30.05,20,7,21,0.00
2013-3-31,78,64,57,66,61,56,99,91,66,30.06,29.89,28,6,28,0.67
2013-4-1,76,64,54,61,57,54,99,79,50,30.12,29.97,12,3,13,0.00
2013-4-2,76,66,56,63,58,54,99,79,52,30.13,29.97,17,5,18,0.09
2013-4-3,66,61,53,65,60,51,98,94,89,30.05,29.72,32,8,32,0.98
2013-4-4,57,52,49,51,49,46,98,91,80,30.10,29.94,18,6,18,0.01
2013-4-5,68,56,48,52,48,44,91,76,53,30.22,30.09,20,7,20,0.00
2013-4-6,72,61,50,58,52,47,93,75,52,30.18,30.06,21,4,21,0.00
2013-4-7,79,68,59,63,60,56,92,77,56,30.11,29.98,17,7,18,0.00
2013-4-8,82,71,63,67,64,61,96,79,57,30.02,29.92,23,8,24,0.00
2013-4-9,85,77,70,73,71,67,93,83,65,30.00,29.90,24,9,30,0.00
2013-4-10,84,78,74,73,72,70,90,82,68,29.97,29.80,28,9,28,0.00
2013-4-11,77,66,54,73,62,51,95,87,75,29.89,29.70,28,7,31,0.70
2013-4-12,74,61,50,52,49,45,96,67,35,30.03,29.89,13,3,14,0.00
2013-4-13,76,66,55,56,50,45,76,56,34,30.06,29.88,21,8,21,0.01
2013-4-14,75,66,57,66,61,54,96,84,69,29.93,29.75,29,8,29,1.27
2013-4-15,77,71,65,75,69,64,99,94,87,29.98,29.83,15,6,15,0.02
2013-4-16,84,77,72,76,73,72,98,88,73,30.09,29.96,21,8,21,0.03
2013-4-17,86,78,73,75,73,71,95,85,68,30.09,29.93,22,10,22,0.00
2013-4-18,84,77,57,74,71,55,94,82,68,29.94,29.78,31,10,31,0.31
2013-4-19,60,54,48,55,45,40,94,73,50,30.23,29.91,26,9,28,0.10
2013-4-20,68,58,47,49,43,36,84,60,35,30.30,30.14,17,5,17,0.00
2013-4-21,72,62,51,54,49,44,86,64,41,30.24,30.12,16,5,16,0.00
2013-4-22,78,67,55,66,58,52,93,75,46,30.16,30.02,18,5,18,0.00
2013-4-23,83,74,67,71,68,65,94,81,60,30.08,29.97,21,8,21,0.00
2013-4-24,73,65,58,70,63,54,97,92,83,30.22,30.00,18,9,25,1.11
2013-4-25,73,62,53,59,53,49,93,75,44,30.35,30.22,16,6,19,0.00
2013-4-26,77,68,58,67,60,50,91,75,66,30.28,30.20,16,6,16,0.00
2013-4-27,84,74,67,70,67,63,98,79,52,30.21,30.04,19,6,21,0.00
2013-4-28,78,71,65,70,67,62,96,89,65,30.08,29.94,16,5,16,0.20
2013-4-29,81,72,61,68,63,57,97,76,45,30.00,29.88,14,4,17,0.00
2013-4-30,73,70,66,70,67,64,98,93,82,29.93,29.84,17,5,17,0.20
2013-5-1,77,70,66,71,67,65,98,91,72,29.93,29.83,14,4,14,0.14
2013-5-2,77,68,64,68,65,63,98,91,70,29.99,29.88,13,3,14,0.48
2013-5-3,67,55,49,66,52,45,98,89,74,30.09,29.93,27,9,27,0.04
2013-5-4,72,59,44,55,46,39,94,66,32,30.08,29.90,23,5,23,0.00
2013-5-5,64,58,52,55,46,42,86,65,49,30.08,29.92,23,7,23,0.00
2013-5-6,74,63,50,58,51,45,93,68,45,30.09,29.96,17,6,22,0.00
2013-5-7,80,69,57,61,58,56,97,72,45,30.08,30.00,16,3,16,0.00
2013-5-8,83,72,59,66,62,58,97,74,46,30.13,30.04,17,4,17,0.00
2013-5-9,83,74,64,70,67,63,96,79,55,30.11,30.01,20,6,20,0.00
2013-5-10,74,68,64,72,66,63,97,94,90,30.11,29.86,37,7,37,2.87
2013-5-11,76,69,64,69,66,63,98,89,78,30.12,29.97,27,3,27,0.81
2013-5-12,79,70,63,65,60,52,91,72,50,30.19,30.08,14,5,15,0.81
2013-5-13,78,68,57,57,50,45,74,55,38,30.32,30.19,16,5,17,0.00
2013-5-14,84,72,59,63,58,51,95,65,35,30.30,30.17,15,4,16,0.00
2013-5-15,82,72,63,68,63,60,94,75,51,30.21,30.03,17,4,17,0.00
2013-5-16,84,75,66,70,66,61,93,76,50,30.06,29.91,21,6,21,0.00
2013-5-17,87,79,71,74,72,69,95,80,58,30.04,29.95,19,6,19,0.00
2013-5-18,88,80,75,74,72,69,95,77,57,30.08,29.99,17,6,18,0.00
2013-5-19,88,80,73,75,73,71,96,81,61,30.02,29.94,22,6,22,0.00
2013-5-20,89,81,74,76,74,72,97,81,61,30.01,29.91,22,7,24,0.00
2013-5-21,90,81,75,76,74,71,95,79,59,29.97,29.82,21,7,23,0.00
2013-5-22,80,74,67,74,71,65,97,89,73,30.03,29.88,21,6,23,1.50
2013-5-23,89,78,69,76,72,62,99,84,63,30.14,29.97,28,4,30,1.05
2013-5-24,89,78,68,75,70,64,94,79,55,30.17,30.06,23,2,23,0.08
2013-5-25,85,77,69,71,67,61,87,73,61,30.23,30.13,16,6,16,0.00
2013-5-26,84,77,70,72,69,66,93,76,59,30.19,30.10,15,5,16,0.00
2013-5-27,88,79,69,73,69,66,95,74,53,30.14,30.02,16,6,16,0.00
2013-5-28,86,78,71,73,70,67,92,76,57,30.09,29.98,20,7,21,0.01
2013-5-29,85,78,73,76,73,68,96,86,69,30.02,29.93,28,9,29,1.09
2013-5-30,86,80,75,76,75,72,95,85,69,30.01,29.92,28,10,28,0.39
2013-5-31,88,81,75,77,75,73,96,82,64,30.01,29.94,18,7,19,0.00
2013-6-1,91,82,75,77,75,72,96,79,57,29.98,29.91,16,5,16,0.00
2013-6-2,82,78,69,77,74,68,97,87,73,30.04,29.88,27,4,30,0.07
2013-6-3,89,81,74,76,74,70,97,79,56,29.95,29.85,12,3,12,0.00
2013-6-4,90,83,75,77,75,71,96,77,56,29.95,29.85,14,4,15,0.00
2013-6-5,90,82,76,77,75,73,96,81,59,29.94,29.81,18,6,18,0.00
2013-6-6,89,80,71,76,73,68,95,81,62,29.89,29.72,25,5,25,0.18
2013-6-7,85,77,71,73,71,69,97,82,60,29.92,29.82,12,4,12,0.00
2013-6-8,88,79,72,74,71,68,91,78,53,29.98,29.90,16,4,17,0.00
2013-6-9,91,78,72,77,72,66,96,83,56,30.00,29.89,19,5,19,0.44
2013-6-10,88,81,74,78,76,73,97,85,63,30.04,29.97,16,5,16,0.01
2013-6-11,91,84,78,79,77,72,96,80,54,30.11,30.02,15,4,15,0.03
2013-6-12,92,84,76,78,75,71,96,76,52,30.12,30.02,15,4,15,0.00
2013-6-13,92,84,75,78,75,72,97,78,53,30.08,29.92,14,3,14,0.00
2013-6-14,94,85,77,80,77,71,96,78,59,29.98,29.86,13,5,13,0.00
2013-6-15,93,83,74,78,73,68,88,73,48,30.03,29.93,15,4,15,0.00
2013-6-16,91,84,78,78,76,74,95,79,60,30.04,29.97,17,5,17,0.00
2013-6-17,91,84,76,76,74,71,96,76,53,30.05,29.93,20,6,20,0.00
2013-6-18,91,83,75,77,74,70,93,74,54,30.03,29.91,20,7,20,0.00
2013-6-19,84,77,73,76,73,70,96,87,77,30.09,29.97,12,2,13,0.23
2013-6-20,88,80,75,77,74,69,95,83,67,30.16,30.04,45,3,45,0.28
2013-6-21,91,82,73,76,74,72,97,80,55,30.14,30.06,17,2,17,0.00
2013-6-22,90,81,74,78,74,72,96,80,58,30.12,30.02,15,4,16,0.04
2013-6-23,89,81,74,77,74,71,96,82,56,30.10,30.03,20,4,20,0.00
2013-6-24,89,82,76,78,75,69,91,79,54,30.16,30.05,18,4,19,1.53
2013-6-25,91,84,77,77,74,69,91,73,53,30.12,30.01,14,5,14,0.00
2013-6-26,92,84,75,77,74,69,94,73,48,30.06,29.96,16,4,16,0.00
2013-6-27,94,85,77,79,76,72,93,76,51,30.04,29.94,14,4,15,0.00
2013-6-28,93,85,78,79,77,72,96,78,51,29.98,29.80,17,6,17,0.00
2013-6-29,87,81,72,81,76,69,94,86,74,29.89,29.72,32,6,34,0.74
2013-6-30,91,83,74,77,70,59,98,69,35,29.83,29.75,22,4,22,0.00
2013-7-1,86,80,73,70,68,65,85,68,52,29.95,29.83,14,4,14,0.00
2013-7-2,87,80,73,71,69,66,84,69,54,30.02,29.93,10,3,10,0.00
2013-7-3,86,77,73,74,70,68,91,81,60,30.04,29.96,16,4,18,0.13
2013-7-4,88,80,72,75,72,70,95,78,57,30.00,29.93,13,4,13,0.00
2013-7-5,83,78,73,77,73,69,93,85,74,30.06,29.96,32,6,33,2.38
2013-7-6,86,78,72,76,74,71,97,89,70,30.03,29.96,18,6,20,0.23
2013-7-7,84,78,74,78,75,72,96,91,77,30.12,29.99,19,5,19,0.82
2013-7-8,90,79,73,78,74,72,97,86,58,30.18,30.08,16,3,18,0.19
2013-7-9,92,83,75,78,75,72,97,80,56,30.20,30.09,15,3,15,0.00
2013-7-10,92,84,77,78,76,72,96,79,55,30.13,29.99,14,5,15,0.00
2013-7-11,89,79,74,79,75,72,97,88,66,30.03,29.94,32,5,34,0.51
2013-7-12,92,81,72,79,75,70,99,82,60,29.98,29.87,16,2,17,0.07
2013-7-13,90,82,74,75,71,68,89,71,50,29.96,29.88,9,3,9,0.00
2013-7-14,90,78,72,76,72,65,96,84,58,30.05,29.92,36,4,38,0.86
2013-7-15,84,77,74,78,74,72,96,91,76,30.13,30.00,15,5,17,0.10
2013-7-16,85,79,74,77,75,72,96,88,73,30.18,30.09,19,6,19,0.04
2013-7-17,90,82,76,77,74,68,98,78,51,30.23,30.12,19,7,19,0.00
2013-7-18,88,80,73,77,74,70,95,84,65,30.19,30.03,29,3,29,0.27
2013-7-19,91,81,74,77,74,68,96,79,49,30.09,29.96,13,2,13,0.00
2013-7-20,90,82,75,76,75,70,97,81,58,30.03,29.94,18,3,23,0.00
2013-7-21,84,79,75,77,75,72,95,86,75,30.12,30.00,22,5,22,0.62
2013-7-22,89,83,78,80,78,74,95,84,65,30.09,30.01,20,6,20,0.05
2013-7-23,91,84,78,79,77,74,96,82,59,30.09,29.95,21,8,21,0.00
2013-7-24,91,83,77,79,76,74,96,81,59,30.02,29.91,22,7,22,0.02
2013-7-25,90,82,75,77,75,73,94,79,63,30.07,29.95,11,3,11,0.00
2013-7-26,92,83,76,78,74,70,91,76,60,30.09,29.98,24,3,27,0.00
2013-7-27,84,80,75,80,77,72,97,90,82,30.00,29.88,25,5,26,0.80
2013-7-28,90,82,75,78,75,73,97,82,59,30.04,29.92,9,2,9,0.00
2013-7-29,91,83,76,78,76,70,97,82,61,30.12,30.03,15,2,18,0.02
2013-7-30,92,84,77,80,77,73,96,81,61,30.18,30.08,15,4,15,0.06
2013-7-31,93,84,77,80,77,75,95,80,59,30.14,29.99,16,4,17,0.00
2013-8-1,92,84,77,80,76,70,95,79,60,30.06,29.94,14,4,14,0.00
2013-8-2,93,84,76,80,75,70,90,77,62,30.04,29.95,25,2,25,0.00
2013-8-3,93,85,76,80,77,74,96,79,57,30.09,30.01,13,3,13,0.00
2013-8-4,95,84,78,80,76,71,97,80,48,30.13,30.01,18,3,19,0.00
2013-8-5,93,84,77,80,77,74,95,80,56,30.09,29.98,19,5,19,0.00
2013-8-6,94,85,78,80,77,74,95,79,55,30.04,29.93,20,5,20,0.00
2013-8-7,94,85,77,80,76,71,96,78,50,30.01,29.91,14,4,14,0.00
2013-8-8,95,86,78,81,78,73,95,77,51,29.99,29.89,16,3,16,0.00
2013-8-9,90,83,79,80,78,75,95,86,67,30.03,29.94,20,3,22,0.15
2013-8-10,93,82,78,79,76,72,96,82,54,30.09,30.00,32,4,32,0.02
2013-8-11,87,81,77,78,76,74,94,86,69,30.14,30.06,17,4,20,1.10
2013-8-12,92,82,78,80,77,73,96,85,56,30.12,30.04,18,4,18,0.00
2013-8-13,90,80,72,80,76,70,96,90,68,30.08,29.96,30,5,32,1.06
2013-8-14,80,76,73,78,74,72,96,94,88,30.02,29.94,18,4,19,0.29
2013-8-15,88,79,73,77,74,72,97,84,61,30.03,29.94,12,3,12,0.29
2013-8-16,88,81,74,76,73,70,94,78,56,30.01,29.93,12,3,13,0.00
2013-8-17,86,79,74,75,73,70,95,82,66,30.00,29.93,20,6,22,0.00
2013-8-18,84,77,71,74,72,70,97,83,68,30.04,29.96,15,4,15,0.00
2013-8-19,88,78,71,76,73,70,98,85,59,30.08,29.98,13,3,13,0.00
2013-8-20,91,79,71,77,74,69,97,84,56,30.09,30.00,24,2,25,1.54
2013-8-21,88,80,75,79,75,73,97,87,67,30.14,30.05,19,3,19,0.03
2013-8-22,91,82,75,78,75,72,97,83,58,30.11,29.99,16,3,17,0.06
2013-8-23,90,82,76,77,76,74,97,83,61,30.03,29.94,26,5,26,0.00
2013-8-24,83,78,74,76,74,73,96,87,75,30.11,29.98,22,7,22,0.04
2013-8-25,84,77,73,77,74,72,97,92,77,30.18,30.09,23,7,24,0.70
2013-8-26,84,77,74,78,75,73,98,92,78,30.20,30.12,24,4,25,0.50
2013-8-27,88,80,73,76,71,68,97,77,53,30.15,30.05,10,3,10,0.00
2013-8-28,88,80,71,70,68,65,90,69,49,30.12,30.03,10,2,10,0.00
2013-8-29,88,80,71,72,69,66,94,69,51,30.11,30.00,10,1,10,0.00
2013-8-30,90,81,73,75,71,69,94,74,52,30.08,29.96,12,2,12,0.00
2013-8-31,92,82,73,77,74,71,95,79,57,30.01,29.88,11,2,11,0.00
2013-9-1,92,83,76,78,75,70,96,78,50,29.98,29.87,16,5,17,0.00
2013-9-2,93,83,75,78,76,72,97,79,53,30.01,29.88,13,5,17,0.00
2013-9-3,93,83,76,79,76,73,96,81,54,30.01,29.88,27,3,28,0.03
2013-9-4,91,80,75,79,76,72,96,86,62,30.08,29.96,25,2,25,0.38
2013-9-5,91,81,75,79,76,73,96,85,61,30.13,30.04,18,2,19,0.03
2013-9-6,90,81,75,78,76,72,96,84,59,30.13,30.01,20,3,20,0.02
2013-9-7,91,80,74,79,74,70,94,83,54,30.08,29.98,23,3,25,0.00
2013-9-8,90,78,73,75,72,70,94,82,57,30.04,29.94,24,2,25,0.00
2013-9-9,90,81,73,76,73,71,96,78,56,30.07,29.98,16,4,16,0.01
2013-9-10,90,82,75,78,75,73,94,80,59,30.13,30.03,20,5,21,0.00
2013-9-11,90,82,75,76,73,69,94,76,52,30.14,30.04,17,6,18,0.00
2013-9-12,92,83,74,76,73,67,95,73,45,30.07,29.94,15,4,15,0.00
2013-9-13,92,82,74,76,73,70,95,77,51,29.97,29.83,28,2,33,0.65
2013-9-14,89,80,74,75,73,70,95,82,61,29.99,29.89,18,4,18,0.00
2013-9-15,92,82,74,76,74,68,95,77,49,30.07,29.97,17,5,17,0.00
2013-9-16,91,82,75,78,74,68,95,78,48,30.10,30.01,16,5,17,0.00
2013-9-17,91,83,76,76,74,71,95,77,53,30.10,29.97,13,4,17,0.00
2013-9-18,89,81,76,78,76,74,96,84,64,30.07,29.97,22,6,23,0.00
2013-9-19,87,79,75,78,75,73,95,88,71,30.04,29.96,24,7,24,0.10
2013-9-20,90,83,77,79,78,76,97,85,67,30.00,29.81,18,6,18,0.00
2013-9-21,82,76,70,78,74,69,97,94,86,29.81,29.73,27,5,27,2.89
2013-9-22,77,73,69,69,67,64,96,83,72,29.85,29.77,19,7,19,0.01
2013-9-23,86,76,67,78,70,61,94,83,72,29.86,29.78,20,6,20,0.21
2013-9-24,90,81,76,80,76,73,98,87,70,29.87,29.79,21,4,21,0.20
2013-9-25,90,79,71,75,70,60,99,76,38,29.88,29.79,15,2,15,0.01
2013-9-26,87,78,68,72,67,61,91,71,44,29.97,29.85,11,2,12,0.00
2013-9-27,87,78,69,74,70,67,96,79,54,30.04,29.94,12,3,12,0.00
2013-9-28,86,79,72,73,70,65,93,75,54,30.09,29.99,14,5,14,0.00
2013-9-29,84,77,72,72,69,64,93,77,52,30.06,29.94,15,3,16,0.00
2013-9-30,82,75,73,75,72,68,97,90,78,29.98,29.91,19,4,20,0.03
2013-10-1,85,78,73,76,74,71,96,88,68,30.04,29.95,18,6,18,0.00
2013-10-2,84,78,71,76,74,70,98,88,73,30.07,29.96,24,5,25,0.63
2013-10-3,88,79,72,78,74,72,99,86,60,30.04,29.94,14,5,15,0.00
2013-10-4,86,78,74,76,74,72,97,88,69,30.04,29.95,24,6,24,0.04
2013-10-5,84,78,74,78,74,72,98,89,72,30.00,29.90,28,6,29,0.13
2013-10-6,77,72,64,74,67,54,97,85,62,30.02,29.87,21,6,21,0.13
2013-10-7,75,66,59,59,55,50,85,69,51,30.09,30.00,18,6,19,0.00
2013-10-8,76,67,58,61,57,54,86,72,52,30.10,30.01,12,4,12,0.00
2013-10-9,80,69,60,66,60,56,93,75,51,30.12,30.04,9,2,9,0.00
2013-10-10,81,72,65,69,66,61,99,83,59,30.13,30.01,9,2,9,0.00
2013-10-11,86,74,66,74,70,65,98,88,60,30.07,29.97,18,4,19,0.00
2013-10-12,87,78,70,76,71,69,97,82,56,30.14,29.99,13,3,13,0.09
2013-10-13,85,77,71,75,72,70,98,87,65,30.19,30.04,13,3,13,0.00
2013-10-14,84,76,69,72,67,63,95,75,51,30.14,30.03,14,4,14,0.00
2013-10-15,85,76,68,73,70,67,97,82,58,30.07,29.95,15,3,15,0.00
2013-10-16,81,76,71,74,71,69,95,87,72,30.03,29.92,15,4,15,0.00
2013-10-17,74,69,63,73,66,60,97,90,81,30.06,29.94,15,6,15,0.00
2013-10-18,74,66,59,62,59,56,94,79,60,30.09,29.95,19,5,19,0.01
2013-10-19,72,65,60,63,60,56,97,85,67,30.07,29.94,16,5,16,0.72
2013-10-20,73,63,54,61,55,50,92,78,56,30.12,30.00,13,3,13,0.00
2013-10-21,70,65,58,64,61,56,95,88,78,30.09,29.96,14,3,14,0.00
2013-10-22,75,67,60,65,62,57,95,85,65,30.06,29.97,18,5,18,0.00
2013-10-23,74,64,53,59,54,51,96,73,46,30.17,30.06,12,4,12,0.00
2013-10-24,79,66,53,62,54,48,91,67,38,30.25,30.15,9,2,9,0.00
2013-10-25,69,61,54,59,50,45,88,68,42,30.42,30.24,18,6,20,0.00
2013-10-26,76,61,48,58,50,42,87,68,43,30.33,30.17,12,4,13,0.00
2013-10-27,72,66,57,67,62,55,96,88,78,30.18,30.06,20,5,20,0.02
2013-10-28,82,72,64,69,66,62,95,81,58,30.20,30.08,13,4,14,0.00
2013-10-29,82,72,64,69,66,62,97,82,60,30.24,30.15,20,6,20,0.00
2013-10-30,81,73,66,71,68,64,97,86,68,30.20,30.02,20,7,20,0.00
2013-10-31,82,73,66,74,70,65,98,91,74,30.02,29.83,31,6,35,0.82
2013-11-1,74,65,58,66,59,54,98,82,53,29.98,29.86,14,3,15,0.01
2013-11-2,70,63,57,58,52,43,97,71,39,30.21,29.96,21,6,21,0.00
2013-11-3,65,57,49,51,46,43,90,68,48,30.28,30.15,17,5,17,0.00
2013-11-4,76,63,52,62,55,48,95,78,50,30.23,30.13,19,8,19,0.00
2013-11-5,74,68,63,66,63,58,95,86,75,30.20,30.11,26,9,26,0.00
2013-11-6,79,70,61,72,68,60,98,91,78,30.13,30.06,20,5,20,0.72
2013-11-7,68,58,50,67,50,42,97,75,48,30.36,30.13,23,11,23,0.01
2013-11-8,64,54,45,49,41,36,81,63,39,30.39,30.22,24,5,24,0.00
2013-11-9,67,56,49,57,50,42,88,79,70,30.24,30.19,10,2,10,0.00
2013-11-10,75,65,58,59,55,51,88,72,55,30.30,30.19,12,4,14,0.00
2013-11-11,74,63,53,58,53,49,87,71,50,30.28,30.16,8,2,10,0.00
2013-11-12,71,57,41,56,48,33,85,74,56,30.54,30.22,23,9,28,0.00
2013-11-13,56,44,34,34,29,24,76,57,30,30.58,30.44,16,8,20,0.00
2013-11-14,65,52,40,53,42,29,87,69,58,30.45,30.14,13,6,14,0.00
2013-11-15,76,65,56,67,60,52,96,86,73,30.15,29.98,11,5,14,0.00
2013-11-16,81,71,64,71,67,62,98,89,70,30.06,29.94,14,7,20,0.00
2013-11-17,82,76,70,77,73,69,98,93,81,29.99,29.89,17,7,21,0.01
2013-11-18,76,70,59,74,58,42,99,69,41,30.14,29.97,21,4,29,0.28
2013-11-19,64,56,49,44,39,33,67,53,31,30.20,30.08,17,6,21,0.00
2013-11-20,71,57,44,57,46,36,95,67,44,30.15,30.04,11,4,14,0.00
2013-11-21,71,64,58,67,63,56,98,94,87,30.20,30.11,14,7,17,0.00
2013-11-22,72,67,64,68,65,63,99,93,79,30.26,30.17,14,5,25,0.03
2013-11-23,65,56,48,63,54,42,97,93,79,30.38,30.19,21,9,27,0.01
2013-11-24,54,46,40,42,32,29,81,59,40,30.43,30.31,22,9,26,0.00
2013-11-25,48,45,42,47,39,28,98,80,56,30.34,29.93,19,7,23,0.12
2013-11-26,48,44,41,48,43,38,98,95,91,30.13,29.83,23,11,30,0.81
2013-11-27,47,41,34,38,33,28,93,74,51,30.46,30.14,18,9,22,0.00
2013-11-28,47,38,30,38,30,26,92,73,50,30.53,30.43,10,3,13,0.00
2013-11-29,59,46,34,39,32,27,92,63,31,30.57,30.45,11,2,11,0.00
2013-11-30,65,51,37,48,40,33,91,68,40,30.46,30.28,7,1,8,0.00
2013-12-1,70,57,42,54,48,41,96,74,46,30.32,30.04,14,2,14,0.00
2013-12-2,73,65,55,66,60,51,96,87,74,30.04,29.78,18,6,22,0.00
2013-12-3,79,70,63,70,67,63,99,89,65,29.83,29.73,25,8,27,0.02
2013-12-4,80,74,71,72,71,69,95,88,72,29.94,29.82,21,6,21,0.00
2013-12-5,83,76,73,74,72,71,95,90,72,30.03,29.92,20,6,20,0.02
2013-12-6,76,54,40,74,52,38,97,94,81,30.29,29.93,24,8,24,0.03
2013-12-7,40,38,36,38,36,33,97,92,89,30.40,30.28,20,8,21,0.00
2013-12-8,46,42,39,46,42,38,99,98,97,30.30,30.07,12,4,12,1.32
2013-12-9,52,48,41,50,48,40,99,98,94,30.19,30.09,22,5,22,0.18
2013-12-10,50,42,36,40,37,33,98,83,62,30.42,30.19,26,9,26,0.02
2013-12-11,50,44,37,44,39,34,89,81,71,30.47,30.35,12,4,12,0.00
2013-12-12,55,46,38,40,34,30,85,65,44,30.55,30.40,14,5,15,0.00
2013-12-13,62,50,38,57,43,29,90,75,62,30.40,29.96,15,6,16,0.00
2013-12-14,69,61,48,66,58,44,96,89,83,30.15,29.85,27,7,27,0.35
2013-12-15,52,45,40,44,38,36,86,76,61,30.35,30.15,23,8,25,0.00
2013-12-16,60,46,36,42,37,33,93,73,41,30.40,30.27,9,2,9,0.00
2013-12-17,65,49,36,46,41,34,98,75,43,30.39,30.27,10,1,10,0.00
2013-12-18,66,52,40,48,44,38,97,75,47,30.40,30.24,13,4,13,0.00
2013-12-19,73,63,52,62,57,48,94,81,61,30.24,30.03,20,7,22,0.00
2013-12-20,78,71,65,70,67,61,97,87,72,30.06,29.94,19,7,25,0.00
2013-12-21,80,74,64,73,70,62,95,87,72,29.94,29.72,31,9,31,0.14
2013-12-22,66,60,51,62,57,49,96,89,74,30.23,29.83,18,3,18,0.29
2013-12-23,51,43,36,49,37,31,93,80,61,30.54,30.20,22,10,23,0.00
2013-12-24,52,41,32,36,31,28,87,69,49,30.58,30.40,15,4,15,0.00
2013-12-25,48,41,33,34,30,27,80,65,45,30.45,30.33,14,4,15,0.00
2013-12-26,58,47,38,40,35,30,78,62,43,30.44,30.31,11,3,11,0.00
2013-12-27,55,49,44,39,37,34,77,63,48,30.47,30.32,13,4,14,0.00
2013-12-28,50,47,44,49,44,36,97,89,60,30.34,30.01,12,4,12,0.47
2013-12-29,61,50,42,47,44,40,98,80,51,30.17,30.04,9,-1,10,0.01
2013-12-30,53,49,45,47,44,41,91,84,75,30.38,30.15,12,2,12,0.00
2013-12-31,46,43,40,42,39,36,93,85,79,30.46,30.34,16,4,16,0.11
2014-1-1,56,50,43,54,49,42,98,96,93,30.35,30.06,11,3,12,0.06
2014-1-2,56,51,38,56,43,26,99,76,46,30.42,30.01,30,8,30,0.05